Metar Cercanos

 

LEPA - Palma De Mallorc, Spain
Distance from station: ONO 38km
Actualización: 19/04/2018 23:00
Few Clouds
Few Clouds
 Viento del calm
Viento: Calma
Temperatura: 14°C
Rocío: 13°C
Humedad: 94%
Barómetro: 1023 hPa
Clouds: Few Clouds
Visibility: 10 km
Cloud details: Few Clouds 610 m
2018/04/19 21:00 LEPA 192100Z 00000KT 9999 FEW020 14/13 Q1023 NOSIG
LEMH - Mahon/Menorca Is, Spain
Distance from station: ENE 105km
Actualización: 19/04/2018 23:00
Parcialmente nuboso
Parcialmente nuboso
 Viento del ENE
Viento: ENE 13 km/h
Temperatura: 15°C
Rocío: 14°C
Humedad: 94%
Barómetro: 1024 hPa
Clouds: Parcialmente nuboso
Visibility: 10 km
Cloud details: Parcialmente nuboso 122 m
2018/04/19 21:00 LEMH 192100Z 06007KT 9999 SCT004 15/14 Q1024
 
LEIB - Ibiza/Es Codola, Spain
Distance from station: OSO 165km
Actualización: 19/04/2018 23:00
Few Clouds
Few Clouds
 Viento del NE
Viento: NE 13 km/h
Temperatura: 14°C
Rocío: 13°C
Humedad: 94%
Barómetro: 1023 hPa
Clouds: Few Clouds
Visibility: 10 km
Cloud details: Few Clouds 366 m
2018/04/19 21:00 LEIB 192100Z 05007KT 9999 FEW012 14/13 Q1023 NOSIG
LEBL - Barcelona Airpor, Spain
Distance from station: NNO 225km
Actualización: 19/04/2018 23:00
Despejado
Despejado
 Viento del ENE
Viento: ENE 7 km/h
Temperatura: 16°C
Rocío: 12°C
Humedad: 77%
Barómetro: 1025 hPa
Resumen: Despejado
Visibility: greater than 10 km
2018/04/19 21:00 LEBL 192100Z 07004KT CAVOK 16/12 Q1025 NOSIG
 
LEVC - Valencia (civ/Mi, Spain
Distance from station: NO 188km
Actualización: 19/04/2018 23:00
Few Clouds
Few Clouds
 Viento del ENE
Viento: ENE 7 km/h
Temperatura: 16°C
Rocío: 13°C
Humedad: 83%
Barómetro: 1024 hPa
Clouds: Few Clouds
Visibility: 10 km
Cloud details: Few Clouds 610 m
2018/04/19 21:00 LEVC 192100Z 07004KT 9999 FEW020 16/13 Q1024 NOSIG
LEGE - Gerona/Costa Bra, Spain
Distance from station: N 276km
Actualización: 19/04/2018 23:00
Despejado
Despejado
 Viento del varies
Viento: varies 4 km/h
Temperatura: 14°C
Rocío: 11°C
Humedad: 82%
Barómetro: 1025 hPa
Resumen: Despejado
Visibility: greater than 10 km
2018/04/19 21:00 LEGE 192100Z VRB02KT CAVOK 14/11 Q1025
 
LEAL - Alicante/El Alte, Spain
Distance from station: OSO 344km
Actualización: 19/04/2018 23:00
Few Clouds
Few Clouds
 Viento del NE
Viento: NE 13 km/h
Temperatura: 16°C
Rocío: 14°C
Humedad: 88%
Barómetro: 1023 hPa
Clouds: Few Clouds
Visibility: 10 km
Cloud details: Few Clouds 274 m
2018/04/19 21:00 LEAL 192100Z 05007KT 010V070 9999 FEW009 16/14 Q1023 NOSIG
LEAM - Almeria Airport, Spain
Distance from station: SSO 56km
Actualización: 19/04/2018 23:00
Despejado
Despejado
 Viento del E
Viento: E 26 km/h
Temperatura: 16°C
Rocío: 12°C
Humedad: 77%
Barómetro: 1020 hPa
Clouds: Despejado
Visibility: 10 km
2018/04/19 21:00 LEAM 192100Z AUTO 09014KT 9999 NCD 16/12 Q1020
 
LEZG - Zaragoza (mil/Ci, Spain
Distance from station: NO 431km
Actualización: 19/04/2018 23:00
Few Clouds
Few Clouds
 Viento del ESE
Viento: ESE 13 km/h
Temperatura: 17°C
Rocío: 9°C
Humedad: 59%
Barómetro: 1023 hPa
Clouds: Few Clouds
Visibility: 10 km
Cloud details: Few Clouds 1829 m
2018/04/19 21:00 LEZG 192100Z 12007KT 9999 FEW060 17/09 Q1023
LEMD - Madrid/Barajas, Spain
Distance from station: ONO 234km
Actualización: 19/04/2018 23:00
Despejado
Despejado
 Viento del ESE
Viento: ESE 15 km/h
Temperatura: 17°C
Rocío: 7°C
Humedad: 52%
Barómetro: 1021 hPa
Resumen: Despejado
Visibility: greater than 10 km
2018/04/19 21:00 LEMD 192100Z 12008KT 090V160 CAVOK 17/07 Q1021 NOSIG
 
LEGR - Granada Airport, Spain
Distance from station: OSO 62km
Actualización: 19/04/2018 23:00
Despejado
Despejado
 Viento del SE
Viento: SE 6 km/h
Temperatura: 16°C
Rocío: 9°C
Humedad: 63%
Barómetro: 1019 hPa
Resumen: Despejado
Visibility: greater than 10 km
2018/04/19 21:00 LEGR 192100Z 14003KT 100V190 CAVOK 16/09 Q1019
LEMG - Malaga (civ/Mil), Spain
Distance from station: OSO 227km
Actualización: 19/04/2018 23:00
Muy nuboso
Muy nuboso
 Viento del SE
Viento: SE 9 km/h
Temperatura: 16°C
Rocío: 13°C
Humedad: 83%
Barómetro: 1020 hPa
Clouds: Muy nuboso
Visibility: 10 km
Cloud details: Parcialmente nuboso 457 m
Muy nuboso 610 m
2018/04/19 21:00 LEMG 192100Z 13005KT 100V160 9999 SCT015 BKN020 16/13 Q1020 NOSIG
 
LEZL - Sevilla (civ/Mil, Spain
Distance from station: S 318km
Actualización: 19/04/2018 23:00
Despejado
Despejado
 Viento del E
Viento: E 9 km/h
Temperatura: 19°C
Rocío: 9°C
Humedad: 52%
Barómetro: 1016 hPa
Resumen: Despejado
Visibility: greater than 10 km
2018/04/19 21:00 LEZL 192100Z 08005KT 040V110 CAVOK 19/09 Q1016 NOSIG
LEVT - Vitoria, Spain
Distance from station: NO 226km
Actualización: 19/04/2018 23:00
Despejado
Despejado
 Viento del ESE
Viento: ESE 6 km/h
Temperatura: 17°C
Rocío: 7°C
Humedad: 52%
Barómetro: 1023 hPa
Resumen: Despejado
Visibility: greater than 10 km
2018/04/19 21:00 LEVT 192100Z 12003KT 080V160 CAVOK 17/07 Q1023
 
LEBB - Bilbao/Sondica, Spain
Distance from station: NNO 235km
Actualización: 19/04/2018 23:00
Despejado
Despejado
 Viento del SSE
Viento: SSE 15 km/h
Temperatura: 23°C
Rocío: 11°C
Humedad: 47%
Barómetro: 1021 hPa
Resumen: Despejado
Visibility: greater than 10 km
2018/04/19 21:00 LEBB 192100Z 15008KT 110V200 CAVOK 23/11 Q1021 NOSIG
LESO - San Sebastian/Fu, Spain
Distance from station: N 231km
Actualización: 19/04/2018 23:00
Despejado
Despejado
 Viento del SSO
Viento: SSO 6 km/h
Temperatura: 18°C
Rocío: 12°C
Humedad: 68%
Barómetro: 1021 hPa
Clouds: Despejado
Visibility: 10 km
2018/04/19 21:00 LESO 192100Z AUTO 21003KT 190V250 9999 NCD 18/12 Q1021
 
LEVD - Valladolid(Mil/C, Spain
Distance from station: ONO 239km
Actualización: 19/04/2018 21:30
NOT Current
Despejado
Despejado
 Viento del E
Viento: E 15 km/h
Temperatura: 17°C
Rocío: 6°C
Humedad: 49%
Barómetro: 1020 hPa
Resumen: Despejado
Visibility: greater than 10 km
2018/04/19 19:30 LEVD 191930Z 09008KT CAVOK 17/06 Q1020
LESA - Salamanca (civ/M, Spain
Distance from station: ONO 349km
Actualización: 19/04/2018 23:00
Despejado
Despejado
 Viento del SE
Viento: SE 13 km/h
Temperatura: 13°C
Rocío: 7°C
Humedad: 67%
Barómetro: 1020 hPa
Resumen: Despejado
Visibility: greater than 10 km
2018/04/19 21:00 LESA 192100Z 13007KT CAVOK 13/07 Q1020
 
LEXJ - Santander/Paraya, Spain
Distance from station: NNO 247km
Actualización: 19/04/2018 23:00
Despejado
Despejado
 Viento del O
Viento: O 7 km/h
Temperatura: 14°C
Rocío: 12°C
Humedad: 88%
Barómetro: 1021 hPa
Resumen: Despejado
Visibility: greater than 10 km
2018/04/19 21:00 LEXJ 192100Z 27004KT CAVOK 14/12 Q1021
LEAS - Asturias/Aviles, Spain
Distance from station: NO 214km
Actualización: 19/04/2018 23:00
Muy nuboso
Muy nuboso
 Viento del ONO
Viento: ONO 11 km/h
Temperatura: 13°C
Rocío: 13°C
Humedad: 100%
Barómetro: 1022 hPa
Clouds: Muy nuboso
Visibility: 9 km
Cloud details: Muy nuboso 152 m
Muy nuboso 213 m
2018/04/19 21:00 LEAS 192100Z 30006KT 270V330 9000 BKN005 BKN007 13/13 Q1022 TEMPO 4000 BR
 
LECO - La Coruna/Alvedr, Spain
Distance from station: ONO 222km
Actualización: 19/04/2018 23:00
Despejado
Despejado
 Viento del N
Viento: N 13 km/h
Temperatura: 14°C
Rocío: 10°C
Humedad: 77%
Barómetro: 1021 hPa
Resumen: Despejado
Visibility: greater than 10 km
2018/04/19 21:00 LECO 192100Z 01007KT 320V070 CAVOK 14/10 Q1021 NOSIG
LEVX - Vigo/Peinador, Spain
Distance from station: O 214km
Actualización: 19/04/2018 23:00
Despejado
Despejado
 Viento del NNE
Viento: NNE 13 km/h
Temperatura: 16°C
Rocío: 13°C
Humedad: 83%
Barómetro: 1018 hPa
Resumen: Despejado
Visibility: greater than 10 km
2018/04/19 21:00 LEVX 192100Z 02007KT CAVOK 16/13 Q1018 NOSIG